Time;durP1;ratioP1;P1;durP2;ratioP2;P2;SDS_P1;SDS_P2;PMS_P1;PMS_P2;Temp;Humidity;BMP_temperature;BMP_pressure;BME280_temperature;BME280_humidity;BME280_pressure;Samples;Min_cycle;Max_cycle;Signal;HPM_P1;HPM_P2
2022/11/12 00:02:06;;;;;;;7.55;4.68;;;;;;;;;;5052978;28;20059;-69
2022/11/12 00:04:31;;;;;;;6.95;4.93;;;;;;;;;;5048744;28;20501;-69
2022/11/12 00:06:56;;;;;;;7.10;4.72;;;;;;;;;;5053026;28;20340;-69
2022/11/12 00:09:21;;;;;;;6.90;5.17;;;;;;;;;;5052092;28;20375;-69
2022/11/12 00:11:46;;;;;;;7.20;5.03;;;;;;;;;;5052612;28;20742;-69
2022/11/12 00:14:12;;;;;;;7.07;4.63;;;;;;;;;;5052373;28;20423;-69
2022/11/12 00:16:37;;;;;;;7.30;4.72;;;;;;;;;;5052990;28;20256;-69
2022/11/12 00:19:02;;;;;;;5.43;3.85;;;;;;;;;;5050851;28;20506;-69
2022/11/12 00:21:27;;;;;;;6.75;4.55;;;;;;;;;;5052013;28;20028;-69
2022/11/12 00:23:53;;;;;;;5.95;4.25;;;;;;;;;;5046162;28;20013;-69
2022/11/12 00:26:18;;;;;;;6.10;4.50;;;;;;;;;;5052342;28;20024;-69
2022/11/12 00:28:43;;;;;;;7.18;4.38;;;;;;;;;;5052221;28;20271;-69
2022/11/12 00:31:09;;;;;;;6.22;4.50;;;;;;;;;;5052275;28;20029;-68
2022/11/12 00:33:38;;;;;;;8.35;4.32;;;;;;;;;;5048041;28;20418;-68
2022/11/12 00:36:03;;;;;;;6.78;4.55;;;;;;;;;;5049077;28;20044;-69
2022/11/12 00:38:29;;;;;;;11.85;5.55;;;;;;;;;;5051804;28;20056;-69
2022/11/12 00:40:57;;;;;;;6.95;5.10;;;;;;;;;;5052117;28;20086;-69
2022/11/12 00:43:23;;;;;;;8.00;4.65;;;;;;;;;;5052180;28;20461;-68
2022/11/12 00:45:49;;;;;;;8.13;5.05;;;;;;;;;;5051985;28;20025;-68
2022/11/12 00:48:14;;;;;;;7.93;5.03;;;;;;;;;;5050694;28;20340;-68
2022/11/12 00:50:39;;;;;;;6.93;4.78;;;;;;;;;;5051911;28;20104;-68
2022/11/12 00:53:04;;;;;;;6.72;4.28;;;;;;;;;;5051532;28;20048;-68
2022/11/12 00:55:29;;;;;;;7.70;5.10;;;;;;;;;;5049782;28;20017;-68
2022/11/12 00:57:56;;;;;;;8.52;5.18;;;;;;;;;;5051811;28;20263;-68
2022/11/12 01:00:21;;;;;;;6.55;4.47;;;;;;;;;;5050980;28;20418;-68
2022/11/12 01:02:47;;;;;;;7.60;4.82;;;;;;;;;;5047318;28;20025;-69
2022/11/12 01:05:12;;;;;;;7.30;5.32;;;;;;;;;;5041849;28;20061;-70
2022/11/12 01:07:37;;;;;;;9.10;4.78;;;;;;;;;;5050728;28;20017;-70
2022/11/12 01:10:03;;;;;;;7.40;4.60;;;;;;;;;;5052367;28;20072;-70
2022/11/12 01:12:30;;;;;;;6.32;4.15;;;;;;;;;;5050495;28;20021;-70
2022/11/12 01:14:55;;;;;;;6.80;4.30;;;;;;;;;;5051780;28;20017;-70
2022/11/12 01:17:21;;;;;;;7.68;4.53;;;;;;;;;;5051136;28;20383;-68
2022/11/12 01:19:46;;;;;;;6.25;4.50;;;;;;;;;;5050937;28;20036;-68
2022/11/12 01:22:11;;;;;;;10.85;5.65;;;;;;;;;;5051883;28;20019;-68
2022/11/12 01:24:36;;;;;;;6.97;4.63;;;;;;;;;;5051528;28;20096;-68
2022/11/12 01:27:02;;;;;;;7.55;5.28;;;;;;;;;;5051874;28;20036;-68
2022/11/12 01:29:27;;;;;;;8.95;4.97;;;;;;;;;;5049806;28;20104;-68
2022/11/12 01:31:52;;;;;;;6.28;4.70;;;;;;;;;;5052296;28;20021;-68
2022/11/12 01:34:17;;;;;;;7.05;5.30;;;;;;;;;;5052197;28;20033;-68
2022/11/12 01:36:42;;;;;;;10.02;5.90;;;;;;;;;;5051545;28;20025;-68
2022/11/12 01:39:08;;;;;;;9.10;5.63;;;;;;;;;;5052082;28;20021;-69
2022/11/12 01:41:35;;;;;;;7.75;5.55;;;;;;;;;;5048038;28;20475;-69
2022/11/12 01:44:07;;;;;;;9.10;4.95;;;;;;;;;;5048422;28;20035;-68
2022/11/12 01:46:33;;;;;;;6.90;4.82;;;;;;;;;;5050847;28;20367;-68
2022/11/12 01:49:01;;;;;;;8.38;5.50;;;;;;;;;;5050310;28;20096;-68
2022/11/12 01:51:29;;;;;;;6.90;4.47;;;;;;;;;;5042997;28;20075;-68
2022/11/12 01:53:55;;;;;;;6.72;4.82;;;;;;;;;;5045561;28;20021;-67
2022/11/12 01:56:22;;;;;;;8.68;4.72;;;;;;;;;;5040314;28;20494;-67
2022/11/12 01:58:51;;;;;;;6.60;4.18;;;;;;;;;;5051292;28;20416;-68
2022/11/12 02:01:16;;;;;;;7.75;4.65;;;;;;;;;;5040936;28;20028;-68
2022/11/12 02:03:41;;;;;;;8.43;4.67;;;;;;;;;;5045968;28;20017;-68
2022/11/12 02:06:08;;;;;;;6.32;4.18;;;;;;;;;;5040563;28;20263;-68
2022/11/12 02:08:34;;;;;;;6.57;4.40;;;;;;;;;;5030334;28;20029;-69
2022/11/12 02:11:09;;;;;;;6.72;3.95;;;;;;;;;;5051144;28;20184;-68
2022/11/12 02:16:19;;;;;;;5.88;4.20;;;;;;;;;;5054897;28;20382;-68
2022/11/12 02:18:44;;;;;;;6.75;4.10;;;;;;;;;;5054498;28;20021;-68
2022/11/12 02:21:09;;;;;;;5.45;3.42;;;;;;;;;;5053801;28;20025;-68
2022/11/12 02:23:36;;;;;;;5.15;3.60;;;;;;;;;;5054685;28;20017;-68
2022/11/12 02:26:02;;;;;;;6.13;3.65;;;;;;;;;;5054770;28;20024;-68
2022/11/12 02:28:29;;;;;;;5.50;4.00;;;;;;;;;;5055288;28;20021;-69
2022/11/12 02:30:55;;;;;;;7.07;3.95;;;;;;;;;;5053967;28;20029;-68
2022/11/12 02:33:20;;;;;;;6.05;3.80;;;;;;;;;;5054248;28;20477;-68
2022/11/12 02:35:45;;;;;;;7.10;3.65;;;;;;;;;;5053030;28;20013;-68
2022/11/12 02:38:10;;;;;;;6.00;3.58;;;;;;;;;;5052826;28;20096;-68
2022/11/12 02:40:36;;;;;;;8.45;3.78;;;;;;;;;;5053681;28;20013;-68
2022/11/12 02:43:01;;;;;;;9.82;4.35;;;;;;;;;;5049882;28;20056;-68
2022/11/12 02:45:26;;;;;;;6.93;4.20;;;;;;;;;;5054320;28;20047;-69
2022/11/12 02:47:52;;;;;;;8.50;4.15;;;;;;;;;;5053736;28;20044;-68
2022/11/12 02:50:17;;;;;;;7.57;4.47;;;;;;;;;;5052003;28;20792;-68
2022/11/12 02:52:42;;;;;;;7.03;4.60;;;;;;;;;;5054359;28;20021;-69
2022/11/12 02:55:08;;;;;;;7.18;4.93;;;;;;;;;;5050613;28;20075;-68
2022/11/12 02:57:34;;;;;;;8.80;5.18;;;;;;;;;;5044831;28;20021;-68
2022/11/12 02:59:59;;;;;;;10.95;5.65;;;;;;;;;;5038582;28;20017;-68
2022/11/12 03:02:24;;;;;;;10.02;5.82;;;;;;;;;;5045527;28;20352;-69
2022/11/12 03:04:49;;;;;;;11.68;7.35;;;;;;;;;;5050286;28;20018;-68
2022/11/12 03:07:15;;;;;;;8.48;5.70;;;;;;;;;;5053959;28;20013;-68
2022/11/12 03:09:40;;;;;;;9.43;6.13;;;;;;;;;;5050016;28;20049;-68
2022/11/12 03:12:05;;;;;;;12.00;7.07;;;;;;;;;;5051087;28;20029;-68
2022/11/12 03:14:30;;;;;;;6.47;5.20;;;;;;;;;;5054016;28;20260;-68
2022/11/12 03:16:56;;;;;;;12.93;6.65;;;;;;;;;;5051868;28;20049;-69
2022/11/12 03:19:21;;;;;;;10.00;6.80;;;;;;;;;;5053725;28;20020;-68
2022/11/12 03:21:46;;;;;;;18.73;7.63;;;;;;;;;;5053316;28;20644;-68
2022/11/12 03:24:11;;;;;;;12.33;7.47;;;;;;;;;;5051605;28;20024;-68
2022/11/12 03:26:37;;;;;;;9.88;6.80;;;;;;;;;;5047613;28;20274;-68
2022/11/12 03:29:02;;;;;;;10.68;6.75;;;;;;;;;;5053155;28;20553;-69
2022/11/12 03:31:27;;;;;;;14.52;7.13;;;;;;;;;;5053302;28;20100;-69
2022/11/12 03:33:52;;;;;;;9.38;6.30;;;;;;;;;;5053443;28;20036;-68
2022/11/12 03:36:17;;;;;;;10.17;6.97;;;;;;;;;;5047716;28;20100;-69
2022/11/12 03:38:43;;;;;;;13.45;7.60;;;;;;;;;;5045418;28;20267;-68
2022/11/12 03:41:08;;;;;;;9.35;6.47;;;;;;;;;;5053132;28;20092;-73
2022/11/12 03:43:33;;;;;;;8.98;6.43;;;;;;;;;;5044526;28;20040;-68
2022/11/12 03:45:58;;;;;;;9.43;6.82;;;;;;;;;;5048179;28;20072;-68
2022/11/12 03:48:24;;;;;;;10.20;6.80;;;;;;;;;;5053010;28;20029;-68
2022/11/12 03:50:49;;;;;;;11.45;6.78;;;;;;;;;;5052933;28;20036;-68
2022/11/12 03:53:14;;;;;;;8.18;6.78;;;;;;;;;;5038804;28;20103;-68
2022/11/12 03:55:39;;;;;;;14.88;7.22;;;;;;;;;;5053308;28;20063;-68
2022/11/12 03:58:05;;;;;;;9.32;6.78;;;;;;;;;;5038508;28;20022;-68
2022/11/12 04:00:30;;;;;;;11.75;7.25;;;;;;;;;;5053034;28;20009;-69
2022/11/12 04:02:55;;;;;;;7.90;6.07;;;;;;;;;;5052192;28;20064;-69
2022/11/12 04:10:56;;;;;;;9.25;6.57;;;;;;;;;;5052502;28;20031;-70
2022/11/12 04:13:27;;;;;;;12.57;6.93;;;;;;;;;;5052735;28;20024;-70
2022/11/12 04:21:50;;;;;;;11.00;6.53;;;;;;;;;;5053214;28;20040;-70
2022/11/12 04:27:08;;;;;;;8.70;5.32;;;;;;;;;;5051803;28;20082;-70
2022/11/12 04:32:17;;;;;;;11.80;6.93;;;;;;;;;;5052584;28;20044;-80
2022/11/12 04:34:42;;;;;;;9.05;6.60;;;;;;;;;;5038185;28;20017;-68
2022/11/12 04:37:07;;;;;;;9.13;6.68;;;;;;;;;;5052035;28;20017;-70
2022/11/12 04:39:33;;;;;;;9.65;6.90;;;;;;;;;;5051036;28;20074;-69
2022/11/12 04:45:01;;;;;;;7.75;6.07;;;;;;;;;;5051061;28;20155;-69
2022/11/12 04:47:46;;;;;;;9.20;6.55;;;;;;;;;;5051829;28;20020;-69
2022/11/12 04:50:14;;;;;;;8.48;5.97;;;;;;;;;;5051513;28;20082;-68
2022/11/12 04:52:39;;;;;;;8.93;6.32;;;;;;;;;;5050063;28;20017;-69
2022/11/12 04:55:05;;;;;;;8.13;5.93;;;;;;;;;;5051736;28;20371;-69
2022/11/12 04:57:30;;;;;;;8.93;6.10;;;;;;;;;;5051859;28;20499;-69
2022/11/12 04:59:55;;;;;;;9.85;5.80;;;;;;;;;;5049400;28;20466;-69
2022/11/12 05:02:21;;;;;;;9.90;5.77;;;;;;;;;;5045518;28;20013;-69
2022/11/12 05:04:46;;;;;;;8.23;5.43;;;;;;;;;;5045093;28;20267;-69
2022/11/12 05:07:12;;;;;;;8.30;5.90;;;;;;;;;;5037946;28;20017;-69
2022/11/12 05:09:37;;;;;;;14.82;6.50;;;;;;;;;;5051679;28;20417;-70
2022/11/12 05:12:03;;;;;;;9.85;5.70;;;;;;;;;;5035084;28;20128;-70
2022/11/12 05:14:28;;;;;;;8.63;6.03;;;;;;;;;;5034445;28;20124;-70
2022/11/12 05:16:53;;;;;;;8.02;6.13;;;;;;;;;;5043204;28;20029;-70
2022/11/12 05:19:18;;;;;;;8.05;5.68;;;;;;;;;;5051717;28;20020;-69
2022/11/12 05:24:27;;;;;;;10.27;6.53;;;;;;;;;;5038355;28;20113;-69
2022/11/12 05:26:53;;;;;;;10.00;5.93;;;;;;;;;;5044286;28;20017;-70
2022/11/12 05:29:18;;;;;;;8.18;5.38;;;;;;;;;;5050233;28;20013;-70
2022/11/12 05:31:44;;;;;;;9.02;6.07;;;;;;;;;;5048914;28;20496;-69
2022/11/12 05:34:09;;;;;;;9.48;6.15;;;;;;;;;;5051712;28;20021;-69
2022/11/12 05:36:34;;;;;;;11.55;6.25;;;;;;;;;;5051647;28;20427;-69
2022/11/12 05:38:59;;;;;;;6.75;5.07;;;;;;;;;;5046697;28;20482;-69
2022/11/12 05:41:25;;;;;;;8.90;5.90;;;;;;;;;;5051599;28;20025;-69
2022/11/12 05:43:50;;;;;;;8.38;5.93;;;;;;;;;;5051593;28;20037;-69
2022/11/12 05:46:15;;;;;;;9.32;5.78;;;;;;;;;;5046064;28;20020;-69
2022/11/12 05:48:40;;;;;;;8.85;5.10;;;;;;;;;;5055520;28;20017;-69
2022/11/12 05:51:06;;;;;;;8.38;5.28;;;;;;;;;;5055103;28;20025;-69
2022/11/12 05:53:31;;;;;;;7.03;4.80;;;;;;;;;;5041781;28;20459;-69
2022/11/12 05:56:02;;;;;;;9.13;4.78;;;;;;;;;;5055517;28;20047;-68
2022/11/12 05:58:28;;;;;;;7.80;4.78;;;;;;;;;;5052932;28;20028;-69
2022/11/12 06:00:53;;;;;;;7.75;5.13;;;;;;;;;;5039281;28;20010;-69
2022/11/12 06:03:18;;;;;;;8.93;4.57;;;;;;;;;;5043387;28;20482;-69
2022/11/12 06:05:44;;;;;;;7.82;5.50;;;;;;;;;;5038111;28;20506;-69
2022/11/12 06:08:09;;;;;;;9.93;5.13;;;;;;;;;;5041460;28;20044;-69
2022/11/12 06:10:34;;;;;;;7.07;4.75;;;;;;;;;;5045454;28;20017;-68
2022/11/12 06:12:59;;;;;;;6.72;4.43;;;;;;;;;;5032415;28;20067;-68
2022/11/12 06:15:28;;;;;;;8.60;5.22;;;;;;;;;;5050207;28;20021;-69
2022/11/12 06:17:53;;;;;;;6.90;4.40;;;;;;;;;;5054558;28;20027;-68
2022/11/12 06:20:19;;;;;;;7.50;4.90;;;;;;;;;;5054965;28;20180;-69
2022/11/12 06:22:44;;;;;;;7.32;5.05;;;;;;;;;;5043771;28;20026;-68
2022/11/12 06:25:10;;;;;;;8.15;5.25;;;;;;;;;;5055105;28;20459;-69
2022/11/12 06:27:35;;;;;;;7.45;5.38;;;;;;;;;;5054403;28;20033;-69
2022/11/12 06:30:00;;;;;;;8.88;5.10;;;;;;;;;;5054037;28;20040;-69
2022/11/12 06:32:25;;;;;;;7.00;4.60;;;;;;;;;;5054667;28;20028;-71
2022/11/12 06:34:52;;;;;;;7.35;4.65;;;;;;;;;;5050625;28;20029;-69
2022/11/12 06:37:17;;;;;;;8.88;4.45;;;;;;;;;;5051321;28;20032;-69
2022/11/12 06:39:43;;;;;;;7.00;5.35;;;;;;;;;;5054510;28;20021;-69
2022/11/12 06:42:08;;;;;;;9.20;4.95;;;;;;;;;;5054190;28;20059;-69
2022/11/12 06:44:33;;;;;;;8.32;4.82;;;;;;;;;;5054143;28;20025;-69
2022/11/12 06:46:58;;;;;;;7.95;4.93;;;;;;;;;;5041905;28;20017;-69
2022/11/12 06:49:23;;;;;;;10.95;5.03;;;;;;;;;;5050680;28;20021;-69
2022/11/12 06:51:49;;;;;;;10.23;5.80;;;;;;;;;;5049238;28;20099;-69
2022/11/12 06:54:14;;;;;;;11.95;5.22;;;;;;;;;;5046180;28;20280;-69
2022/11/12 06:56:39;;;;;;;6.35;4.78;;;;;;;;;;5053836;28;20016;-76
2022/11/12 06:59:05;;;;;;;7.40;4.38;;;;;;;;;;5038519;28;20427;-66
2022/11/12 07:01:30;;;;;;;9.38;4.35;;;;;;;;;;5036725;28;20032;-68
2022/11/12 07:03:55;;;;;;;7.20;4.38;;;;;;;;;;5053714;28;20425;-69
2022/11/12 07:06:20;;;;;;;8.35;5.20;;;;;;;;;;5053809;28;20017;-70
2022/11/12 07:08:46;;;;;;;6.43;4.47;;;;;;;;;;5052015;28;20028;-69
2022/11/12 07:11:11;;;;;;;10.00;5.80;;;;;;;;;;5054207;28;20103;-69
2022/11/12 07:13:37;;;;;;;8.48;5.80;;;;;;;;;;5052906;28;20017;-70
2022/11/12 07:16:03;;;;;;;7.30;5.43;;;;;;;;;;5054021;28;20021;-69
2022/11/12 07:18:29;;;;;;;9.30;6.25;;;;;;;;;;5052647;28;20059;-69
2022/11/12 07:21:01;;;;;;;6.22;4.57;;;;;;;;;;5049189;28;20017;-71
2022/11/12 07:23:27;;;;;;;8.45;5.07;;;;;;;;;;5040780;28;20044;-70
2022/11/12 07:25:56;;;;;;;7.30;5.25;;;;;;;;;;5041917;28;20017;-71
2022/11/12 07:28:26;;;;;;;11.23;5.15;;;;;;;;;;5051220;28;20037;-71
2022/11/12 07:30:55;;;;;;;14.23;6.15;;;;;;;;;;5053137;28;20218;-70
2022/11/12 07:33:21;;;;;;;10.23;5.97;;;;;;;;;;5049650;28;20048;-69
2022/11/12 07:35:46;;;;;;;8.63;5.90;;;;;;;;;;5042591;28;20785;-70
2022/11/12 07:38:11;;;;;;;8.77;5.63;;;;;;;;;;5042095;28;20025;-70
2022/11/12 07:40:36;;;;;;;6.85;5.40;;;;;;;;;;5053935;28;20475;-70
2022/11/12 07:43:02;;;;;;;9.20;5.68;;;;;;;;;;5034785;28;20029;-69
2022/11/12 07:45:27;;;;;;;9.85;6.78;;;;;;;;;;5037845;28;20559;-70
2022/11/12 07:47:52;;;;;;;10.10;6.20;;;;;;;;;;5040664;28;20483;-69
2022/11/12 07:50:17;;;;;;;9.10;5.78;;;;;;;;;;5050515;28;20534;-71
2022/11/12 07:52:42;;;;;;;10.20;6.97;;;;;;;;;;5053307;28;20020;-69
2022/11/12 07:55:08;;;;;;;12.73;6.77;;;;;;;;;;5052674;28;20013;-68
2022/11/12 07:57:33;;;;;;;10.13;7.15;;;;;;;;;;5052843;28;20297;-69
2022/11/12 07:59:58;;;;;;;9.05;7.15;;;;;;;;;;5052514;28;20078;-74
2022/11/12 08:02:23;;;;;;;13.18;7.75;;;;;;;;;;5048627;28;20055;-68
2022/11/12 08:04:49;;;;;;;11.05;7.38;;;;;;;;;;5049640;28;20586;-69
2022/11/12 08:07:14;;;;;;;16.27;8.65;;;;;;;;;;5047922;28;20100;-68
2022/11/12 08:09:39;;;;;;;11.40;7.55;;;;;;;;;;5052422;28;20070;-69
2022/11/12 08:12:05;;;;;;;12.05;8.38;;;;;;;;;;5053262;28;20071;-69
2022/11/12 08:14:30;;;;;;;16.27;8.43;;;;;;;;;;5052531;28;20040;-68
2022/11/12 08:16:55;;;;;;;11.68;7.47;;;;;;;;;;5052040;28;20013;-69
2022/11/12 08:19:20;;;;;;;13.90;7.70;;;;;;;;;;5051635;28;20017;-68
2022/11/12 08:21:46;;;;;;;12.98;8.65;;;;;;;;;;5051977;28;20025;-68
2022/11/12 08:24:11;;;;;;;10.77;7.55;;;;;;;;;;5052871;28;20064;-69
2022/11/12 08:26:36;;;;;;;11.60;7.45;;;;;;;;;;5046452;28;20472;-68
2022/11/12 08:29:02;;;;;;;12.13;8.25;;;;;;;;;;5044866;28;20021;-68
2022/11/12 08:31:27;;;;;;;10.75;8.13;;;;;;;;;;5037771;28;20052;-69
2022/11/12 08:33:52;;;;;;;13.25;10.60;;;;;;;;;;5046890;28;20025;-69
2022/11/12 08:36:18;;;;;;;13.18;9.50;;;;;;;;;;5051943;28;20071;-69
2022/11/12 08:38:43;;;;;;;14.35;10.75;;;;;;;;;;5045866;28;20024;-68
2022/11/12 08:41:10;;;;;;;12.38;9.43;;;;;;;;;;5044776;28;20459;-68
2022/11/12 08:43:36;;;;;;;10.95;8.82;;;;;;;;;;5039044;28;20037;-68
2022/11/12 08:46:01;;;;;;;12.07;9.05;;;;;;;;;;5051962;28;20025;-69
2022/11/12 08:48:28;;;;;;;12.45;8.77;;;;;;;;;;5039361;28;20017;-69
2022/11/12 08:50:54;;;;;;;10.30;7.90;;;;;;;;;;5052561;28;20386;-69
2022/11/12 08:53:20;;;;;;;12.52;8.70;;;;;;;;;;5039430;28;20021;-68
2022/11/12 08:55:45;;;;;;;14.75;8.48;;;;;;;;;;5052249;28;20017;-68
2022/11/12 08:58:10;;;;;;;13.77;7.75;;;;;;;;;;5051496;28;20036;-68
2022/11/12 09:00:40;;;;;;;11.05;8.15;;;;;;;;;;5052325;28;20092;-69
2022/11/12 09:03:06;;;;;;;8.73;6.75;;;;;;;;;;5051912;28;20044;-69
2022/11/12 09:05:32;;;;;;;10.95;7.30;;;;;;;;;;5051868;28;20059;-68
2022/11/12 09:07:59;;;;;;;11.18;6.97;;;;;;;;;;5044221;28;20013;-68
2022/11/12 09:10:24;;;;;;;13.07;7.03;;;;;;;;;;5051788;28;20017;-69
2022/11/12 09:12:51;;;;;;;8.98;6.55;;;;;;;;;;5051816;28;20445;-68
2022/11/12 09:15:16;;;;;;;9.60;6.68;;;;;;;;;;5051175;28;20021;-68
2022/11/12 09:17:41;;;;;;;12.65;6.80;;;;;;;;;;5046875;28;20044;-68
2022/11/12 09:20:07;;;;;;;10.15;6.30;;;;;;;;;;5051675;28;20025;-68
2022/11/12 09:22:32;;;;;;;7.65;5.45;;;;;;;;;;5049711;28;20036;-68
2022/11/12 09:24:57;;;;;;;9.27;5.68;;;;;;;;;;5054914;28;20467;-68
2022/11/12 09:27:25;;;;;;;8.88;5.75;;;;;;;;;;5038599;28;20021;-68
2022/11/12 09:29:50;;;;;;;8.75;5.65;;;;;;;;;;5055114;28;20549;-68
2022/11/12 09:32:15;;;;;;;7.60;5.28;;;;;;;;;;5055154;28;20064;-68
2022/11/12 09:34:41;;;;;;;8.45;5.47;;;;;;;;;;5045806;28;20013;-67
2022/11/12 09:37:06;;;;;;;7.78;4.70;;;;;;;;;;5048481;28;20029;-66
2022/11/12 09:39:31;;;;;;;7.63;4.90;;;;;;;;;;5039446;28;20017;-66
2022/11/12 09:41:57;;;;;;;7.07;4.60;;;;;;;;;;5055584;28;20279;-66
2022/11/12 09:44:23;;;;;;;5.57;4.00;;;;;;;;;;5055299;28;20498;-67
2022/11/12 09:46:54;;;;;;;6.72;3.90;;;;;;;;;;5043454;28;20024;-67
2022/11/12 09:49:22;;;;;;;9.88;3.40;;;;;;;;;;5054611;28;20036;-67
2022/11/12 09:51:47;;;;;;;4.65;3.30;;;;;;;;;;5051466;28;20033;-69
2022/11/12 09:54:23;;;;;;;4.97;2.60;;;;;;;;;;5045135;28;20025;-69
2022/11/12 09:56:49;;;;;;;6.60;3.10;;;;;;;;;;5048165;28;20275;-69
2022/11/12 09:59:15;;;;;;;4.97;3.13;;;;;;;;;;5039973;28;20013;-69
2022/11/12 10:01:46;;;;;;;5.05;2.83;;;;;;;;;;5053131;28;20378;-69
2022/11/12 10:04:11;;;;;;;5.50;3.42;;;;;;;;;;5042206;28;20021;-68
2022/11/12 10:06:44;;;;;;;5.50;2.60;;;;;;;;;;5044685;28;20071;-68
2022/11/12 10:09:12;;;;;;;5.87;3.20;;;;;;;;;;5054747;28;20283;-68
2022/11/12 10:14:47;;;;;;;3.95;2.30;;;;;;;;;;5027451;28;20095;-68
2022/11/12 10:17:21;;;;;;;4.40;3.07;;;;;;;;;;5039410;28;20017;-68
2022/11/12 10:19:46;;;;;;;6.88;2.58;;;;;;;;;;5035986;28;20279;-68
2022/11/12 10:22:15;;;;;;;5.50;2.73;;;;;;;;;;5043994;28;20018;-68
2022/11/12 10:24:40;;;;;;;4.47;2.72;;;;;;;;;;5051371;28;20276;-69
2022/11/12 10:27:14;;;;;;;4.95;2.53;;;;;;;;;;5038277;28;20067;-69
2022/11/12 10:29:45;;;;;;;5.53;2.95;;;;;;;;;;5039681;28;20104;-68
2022/11/12 10:32:12;;;;;;;7.72;3.03;;;;;;;;;;5038763;28;20059;-69
2022/11/12 10:34:39;;;;;;;6.15;2.95;;;;;;;;;;5047935;28;20590;-67
2022/11/12 10:37:16;;;;;;;10.43;3.55;;;;;;;;;;5054660;28;20387;-68
2022/11/12 10:39:43;;;;;;;14.18;3.10;;;;;;;;;;5049456;28;20090;-69
2022/11/12 10:42:10;;;;;;;6.50;3.20;;;;;;;;;;5052353;28;20040;-69
2022/11/12 10:44:42;;;;;;;6.80;3.75;;;;;;;;;;5052589;28;20541;-69
2022/11/12 10:47:24;;;;;;;5.55;3.67;;;;;;;;;;5054206;28;20048;-69
2022/11/12 10:50:07;;;;;;;8.18;3.70;;;;;;;;;;5054635;28;20039;-69
2022/11/12 10:52:33;;;;;;;5.15;3.20;;;;;;;;;;5044519;28;20037;-69
2022/11/12 10:55:05;;;;;;;8.77;4.15;;;;;;;;;;5035848;28;20028;-68
2022/11/12 10:57:30;;;;;;;10.13;4.80;;;;;;;;;;5035446;28;20021;-68
2022/11/12 11:00:07;;;;;;;6.83;4.00;;;;;;;;;;5038542;28;20475;-69
2022/11/12 11:02:33;;;;;;;5.43;3.08;;;;;;;;;;5048609;28;20274;-69
2022/11/12 11:04:58;;;;;;;6.35;3.33;;;;;;;;;;5054439;28;20024;-69
2022/11/12 11:07:24;;;;;;;5.77;3.60;;;;;;;;;;5048744;28;20899;-70
2022/11/12 11:09:53;;;;;;;7.57;3.60;;;;;;;;;;5053011;28;20315;-69
2022/11/12 11:12:26;;;;;;;13.65;3.92;;;;;;;;;;5054071;28;20033;-69
2022/11/12 11:15:14;;;;;;;7.40;3.55;;;;;;;;;;5052818;28;20017;-69
2022/11/12 11:17:39;;;;;;;11.25;4.05;;;;;;;;;;5048278;28;20036;-69
2022/11/12 11:20:12;;;;;;;5.17;3.27;;;;;;;;;;5041202;28;20419;-69
2022/11/12 11:22:42;;;;;;;13.27;3.67;;;;;;;;;;5036839;28;20344;-69
2022/11/12 11:25:26;;;;;;;16.50;4.38;;;;;;;;;;5045905;28;20024;-69
2022/11/12 11:27:54;;;;;;;8.25;3.85;;;;;;;;;;5046889;28;20028;-69
2022/11/12 11:30:20;;;;;;;7.63;4.22;;;;;;;;;;5039023;28;20435;-69
2022/11/12 11:33:04;;;;;;;7.78;3.70;;;;;;;;;;5052930;28;20104;-69
2022/11/12 11:35:41;;;;;;;4.97;3.30;;;;;;;;;;5051018;28;20151;-69
2022/11/12 11:38:25;;;;;;;7.85;3.22;;;;;;;;;;5053032;28;20029;-69
2022/11/12 11:40:59;;;;;;;9.57;3.63;;;;;;;;;;5053465;28;20068;-68
2022/11/12 11:43:38;;;;;;;6.10;3.33;;;;;;;;;;5047876;28;20024;-68
2022/11/12 11:46:21;;;;;;;5.80;3.08;;;;;;;;;;5051626;28;20013;-67
2022/11/12 11:48:55;;;;;;;7.35;3.67;;;;;;;;;;5042527;28;20025;-67
2022/11/12 11:51:30;;;;;;;7.13;3.47;;;;;;;;;;5042658;28;20017;-67
2022/11/12 11:54:15;;;;;;;4.68;3.28;;;;;;;;;;5034954;28;20022;-67
2022/11/12 11:56:41;;;;;;;7.22;3.35;;;;;;;;;;5035422;28;20041;-67
2022/11/12 11:59:10;;;;;;;7.25;3.90;;;;;;;;;;5034339;28;20021;-67
2022/11/12 12:01:47;;;;;;;4.55;2.90;;;;;;;;;;5032235;28;20018;-67
2022/11/12 12:04:32;;;;;;;8.93;3.70;;;;;;;;;;5040898;28;20035;-66
2022/11/12 12:07:00;;;;;;;5.45;3.53;;;;;;;;;;5052579;28;20346;-69
2022/11/12 12:09:25;;;;;;;7.05;3.55;;;;;;;;;;5052799;28;20556;-67
2022/11/12 12:12:00;;;;;;;13.60;3.43;;;;;;;;;;5041766;28;20029;-67
2022/11/12 12:14:41;;;;;;;4.93;3.20;;;;;;;;;;5045591;28;20024;-68
2022/11/12 12:17:24;;;;;;;5.03;3.25;;;;;;;;;;5051255;28;20104;-68
2022/11/12 12:19:58;;;;;;;11.13;5.87;;;;;;;;;;5052040;28;20467;-68
2022/11/12 12:22:27;;;;;;;6.38;3.58;;;;;;;;;;5052893;28;20031;-68
2022/11/12 12:24:57;;;;;;;9.77;4.68;;;;;;;;;;5043616;28;20025;-67
2022/11/12 12:27:34;;;;;;;9.05;3.97;;;;;;;;;;5048366;28;20436;-69
2022/11/12 12:30:03;;;;;;;8.15;3.90;;;;;;;;;;5051647;28;20029;-67
2022/11/12 12:32:32;;;;;;;9.75;4.53;;;;;;;;;;5051895;28;20045;-66
2022/11/12 12:35:14;;;;;;;10.20;3.60;;;;;;;;;;5049995;28;20112;-67
2022/11/12 12:37:40;;;;;;;9.38;3.60;;;;;;;;;;5051735;28;20059;-67
2022/11/12 12:40:22;;;;;;;9.80;4.03;;;;;;;;;;5051445;28;20044;-67
2022/11/12 12:42:52;;;;;;;8.38;4.05;;;;;;;;;;5049455;28;20032;-68
2022/11/12 12:45:37;;;;;;;12.07;5.03;;;;;;;;;;5039686;28;20387;-68
2022/11/12 12:48:04;;;;;;;9.90;5.22;;;;;;;;;;5045105;28;20013;-69
2022/11/12 12:50:30;;;;;;;12.82;3.92;;;;;;;;;;5007372;28;20035;-68
2022/11/12 12:53:04;;;;;;;7.55;4.38;;;;;;;;;;5008205;28;20817;-68
2022/11/12 12:55:48;;;;;;;8.35;4.43;;;;;;;;;;5006051;28;20138;-68
2022/11/12 12:58:24;;;;;;;7.88;3.97;;;;;;;;;;5011275;28;20076;-68
2022/11/12 13:00:51;;;;;;;5.35;3.58;;;;;;;;;;5009051;28;20871;-68
2022/11/12 13:03:35;;;;;;;13.40;3.97;;;;;;;;;;5036003;28;20057;-68
2022/11/12 13:06:07;;;;;;;6.15;3.92;;;;;;;;;;5041194;28;20055;-67
2022/11/12 13:08:34;;;;;;;6.07;3.78;;;;;;;;;;5051859;28;20048;-74
2022/11/12 13:10:59;;;;;;;7.65;3.42;;;;;;;;;;5051445;28;20029;-68
2022/11/12 13:13:26;;;;;;;5.20;3.58;;;;;;;;;;5050748;28;20040;-68
2022/11/12 13:15:53;;;;;;;7.05;4.10;;;;;;;;;;5046293;28;20431;-68
2022/11/12 13:18:33;;;;;;;6.13;3.83;;;;;;;;;;5035969;28;20078;-68
2022/11/12 13:21:09;;;;;;;7.90;4.35;;;;;;;;;;5048032;28;20021;-68
2022/11/12 13:24:06;;;;;;;4.35;3.45;;;;;;;;;;5051829;28;20029;-68
2022/11/12 13:26:43;;;;;;;9.07;3.92;;;;;;;;;;5051405;28;20060;-69
2022/11/12 13:29:19;;;;;;;9.27;3.83;;;;;;;;;;5046736;28;20035;-68
2022/11/12 13:31:45;;;;;;;6.32;3.38;;;;;;;;;;5049591;28;20032;-69
2022/11/12 13:34:18;;;;;;;10.25;4.25;;;;;;;;;;5051025;28;20500;-68
2022/11/12 13:36:57;;;;;;;6.93;3.97;;;;;;;;;;5051588;28;20035;-68
2022/11/12 13:39:23;;;;;;;6.43;4.00;;;;;;;;;;5020438;28;20021;-68
2022/11/12 13:44:41;;;;;;;7.32;4.15;;;;;;;;;;5051321;28;20040;-69
2022/11/12 13:47:10;;;;;;;6.55;3.67;;;;;;;;;;5047881;28;20009;-67
2022/11/12 13:49:35;;;;;;;6.50;3.70;;;;;;;;;;5039171;28;20103;-69
2022/11/12 13:52:03;;;;;;;9.48;4.72;;;;;;;;;;5050779;28;20083;-68
2022/11/12 13:54:31;;;;;;;5.78;3.90;;;;;;;;;;5037857;28;20029;-68
2022/11/12 13:57:11;;;;;;;9.35;4.32;;;;;;;;;;5049852;28;20013;-68
2022/11/12 13:59:36;;;;;;;6.75;4.35;;;;;;;;;;5038009;28;20111;-68
2022/11/12 14:02:04;;;;;;;6.93;4.80;;;;;;;;;;5040566;28;20386;-68
2022/11/12 14:04:29;;;;;;;6.88;4.32;;;;;;;;;;5065020;28;20029;-68
2022/11/12 14:07:01;;;;;;;8.45;4.10;;;;;;;;;;5050722;28;20482;-68
2022/11/12 14:09:29;;;;;;;7.85;4.60;;;;;;;;;;5052013;28;20447;-68
2022/11/12 14:12:00;;;;;;;6.60;4.30;;;;;;;;;;5054365;28;20033;-68
2022/11/12 14:14:29;;;;;;;7.88;4.70;;;;;;;;;;5054888;28;20386;-69
2022/11/12 14:17:13;;;;;;;8.05;5.40;;;;;;;;;;5042237;28;20026;-68
2022/11/12 14:19:53;;;;;;;9.02;5.57;;;;;;;;;;5042406;28;20108;-68
2022/11/12 14:22:20;;;;;;;9.70;7.10;;;;;;;;;;5043871;28;20063;-67
2022/11/12 14:24:47;;;;;;;11.05;7.13;;;;;;;;;;5044651;28;20035;-67
2022/11/12 14:27:27;;;;;;;10.73;6.40;;;;;;;;;;5039666;28;20036;-68
2022/11/12 14:30:12;;;;;;;8.07;6.38;;;;;;;;;;5041676;28;20367;-67
2022/11/12 14:32:38;;;;;;;14.40;6.75;;;;;;;;;;5037550;28;20438;-68
2022/11/12 14:35:17;;;;;;;10.80;7.28;;;;;;;;;;5050203;28;20024;-68
2022/11/12 14:37:45;;;;;;;8.55;5.80;;;;;;;;;;5042718;28;20368;-68
2022/11/12 14:40:17;;;;;;;7.18;5.60;;;;;;;;;;5042580;28;20032;-68
2022/11/12 14:42:43;;;;;;;7.65;5.35;;;;;;;;;;5031869;28;20029;-68
2022/11/12 14:45:18;;;;;;;10.57;5.70;;;;;;;;;;5038650;28;20029;-68
2022/11/12 14:47:48;;;;;;;11.68;5.57;;;;;;;;;;5039642;28;20067;-68
2022/11/12 14:50:19;;;;;;;6.95;5.13;;;;;;;;;;5037405;28;20021;-68
2022/11/12 14:52:47;;;;;;;8.30;5.55;;;;;;;;;;5047524;28;20084;-68
2022/11/12 14:55:17;;;;;;;11.27;4.85;;;;;;;;;;5038877;28;20017;-69
2022/11/12 14:57:42;;;;;;;7.72;5.28;;;;;;;;;;5028262;28;20025;-68
2022/11/12 15:00:17;;;;;;;7.00;5.53;;;;;;;;;;5024555;28;20514;-68
2022/11/12 15:02:43;;;;;;;8.10;4.85;;;;;;;;;;5038274;28;20025;-68
2022/11/12 15:05:14;;;;;;;7.38;5.75;;;;;;;;;;5053295;28;20060;-68
2022/11/12 15:07:51;;;;;;;10.57;5.43;;;;;;;;;;5050995;28;20021;-68
2022/11/12 15:10:29;;;;;;;10.38;5.53;;;;;;;;;;5050928;28;20025;-68
2022/11/12 15:13:02;;;;;;;7.78;5.65;;;;;;;;;;5053043;28;20067;-68
2022/11/12 15:15:27;;;;;;;6.90;4.50;;;;;;;;;;5052697;28;20082;-68
2022/11/12 15:18:00;;;;;;;7.35;5.15;;;;;;;;;;5051613;28;20029;-71